createdAt,value
2023-02-22T00:01:35.244Z,3.25
2023-02-22T00:04:07.292Z,3.25
2023-02-22T00:06:39.229Z,1.50
2023-02-22T00:09:10.853Z,2.50
2023-02-22T00:14:24.350Z,1.25
2023-02-22T00:16:55.365Z,1.00
2023-02-22T00:19:25.782Z,1.00
2023-02-22T00:21:55.973Z,1.00
2023-02-22T00:24:26.373Z,3.25
2023-02-22T00:26:57.218Z,2.00
2023-02-22T00:29:28.295Z,2.00
2023-02-22T00:32:00.046Z,2.50
2023-02-22T00:34:31.439Z,2.00
2023-02-22T00:37:01.731Z,1.00
2023-02-22T00:39:32.253Z,4.00
2023-02-22T00:42:03.231Z,1.50
2023-02-22T00:44:35.312Z,1.25
2023-02-22T00:47:05.901Z,3.25
2023-02-22T00:49:37.067Z,2.00
2023-02-22T00:52:08.085Z,1.00
2023-02-22T00:54:38.435Z,2.00
2023-02-22T00:57:09.090Z,2.00
2023-02-22T00:59:41.001Z,2.00
2023-02-22T01:02:11.527Z,3.50
2023-02-22T01:04:45.095Z,2.00
2023-02-22T01:07:15.988Z,3.00
2023-02-22T01:09:46.381Z,2.50
2023-02-22T01:12:17.374Z,2.00
2023-02-22T01:14:47.717Z,4.00
2023-02-22T01:17:18.082Z,5.25
2023-02-22T01:19:48.725Z,5.00
2023-02-22T01:22:20.499Z,5.50
2023-02-22T01:24:52.258Z,4.00
2023-02-22T01:27:22.675Z,1.00
2023-02-22T01:29:53.214Z,5.00
2023-02-22T01:32:25.042Z,2.75
2023-02-22T01:34:55.704Z,2.25
2023-02-22T01:37:26.009Z,4.75
2023-02-22T01:39:57.770Z,2.00
2023-02-22T01:42:48.719Z,2.50
2023-02-22T01:45:43.453Z,5.00
2023-02-22T01:48:30.100Z,4.50
2023-02-22T01:51:23.850Z,1.00
2023-02-22T01:54:19.032Z,5.75
2023-02-22T01:56:52.506Z,5.00
2023-02-22T01:59:24.235Z,3.25
2023-02-22T02:01:56.874Z,3.25
2023-02-22T02:04:28.646Z,3.75
2023-02-22T02:07:02.460Z,2.75
2023-02-22T02:09:38.721Z,3.00
2023-02-22T02:12:12.425Z,1.50
2023-02-22T02:14:43.764Z,2.00
2023-02-22T02:17:17.289Z,2.00
2023-02-22T02:20:14.283Z,2.75
2023-02-22T02:22:54.326Z,6.00
2023-02-22T02:29:06.414Z,4.50
2023-02-22T02:34:53.128Z,4.00
2023-02-22T02:37:46.709Z,2.00
2023-02-22T02:40:22.858Z,3.25
2023-02-22T02:43:02.359Z,2.00
2023-02-22T02:46:06.259Z,7.25
2023-02-22T02:48:40.008Z,4.00
2023-02-22T02:51:13.490Z,2.25
2023-02-22T02:53:46.895Z,2.25
2023-02-22T02:56:20.047Z,3.00
2023-02-22T02:58:53.242Z,4.75
2023-02-22T03:01:55.519Z,4.00
2023-02-22T03:04:57.788Z,2.00
2023-02-22T03:07:46.429Z,2.00
2023-02-22T03:10:40.667Z,2.50
2023-02-22T03:13:25.732Z,3.00
2023-02-22T03:16:00.184Z,4.25
2023-02-22T03:18:52.437Z,4.00
2023-02-22T03:21:34.991Z,1.00
2023-02-22T03:24:09.894Z,2.50
2023-02-22T03:26:44.053Z,5.00
2023-02-22T03:29:17.859Z,5.00
2023-02-22T03:31:57.447Z,4.50
2023-02-22T03:34:33.675Z,5.00
2023-02-22T03:37:07.480Z,6.50
2023-02-22T03:39:40.215Z,7.75
2023-02-22T03:42:13.639Z,5.25
2023-02-22T03:44:46.577Z,8.75
2023-02-22T03:47:23.310Z,10.50
2023-02-22T03:49:59.446Z,9.00
2023-02-22T03:52:30.453Z,6.00
2023-02-22T03:55:01.233Z,10.75
2023-02-22T03:57:38.248Z,7.75
2023-02-22T04:00:11.477Z,10.00
2023-02-22T04:02:42.410Z,8.75
2023-02-22T04:05:12.728Z,6.25
2023-02-22T04:07:43.485Z,1.25
2023-02-22T04:10:15.654Z,5.00
2023-02-22T04:12:46.264Z,8.50
2023-02-22T04:15:19.539Z,9.75
2023-02-22T04:17:49.971Z,8.50
2023-02-22T04:20:20.807Z,8.50
2023-02-22T04:22:55.491Z,7.75
2023-02-22T04:25:26.091Z,6.00
2023-02-22T04:27:56.484Z,9.25
2023-02-22T04:30:27.033Z,10.25
2023-02-22T04:32:57.702Z,5.50
2023-02-22T04:35:28.002Z,9.25
2023-02-22T04:37:58.999Z,12.25
2023-02-22T04:40:29.420Z,8.00
2023-02-22T04:43:02.905Z,10.00
2023-02-22T04:45:33.408Z,11.50
2023-02-22T04:48:03.859Z,11.00
2023-02-22T04:50:34.330Z,10.00
2023-02-22T04:53:05.147Z,10.00
2023-02-22T04:55:35.801Z,12.50
2023-02-22T04:58:08.124Z,14.25
2023-02-22T05:00:38.837Z,9.25
2023-02-22T05:03:11.661Z,14.75
2023-02-22T05:05:41.860Z,9.00
2023-02-22T05:08:12.281Z,11.50
2023-02-22T05:10:43.211Z,12.00
2023-02-22T05:13:13.788Z,15.50
2023-02-22T05:15:44.213Z,16.75
2023-02-22T05:18:16.365Z,15.75
2023-02-22T05:20:46.943Z,9.25
2023-02-22T05:23:21.224Z,16.50
2023-02-22T05:25:51.374Z,13.75
2023-02-22T05:28:22.961Z,14.75
2023-02-22T05:30:53.584Z,11.50
2023-02-22T05:33:24.191Z,13.00
2023-02-22T05:35:54.669Z,16.00
2023-02-22T05:38:25.106Z,16.75
2023-02-22T05:40:56.341Z,20.25
2023-02-22T05:43:27.345Z,12.50
2023-02-22T05:45:58.062Z,13.50
2023-02-22T05:48:29.234Z,19.25
2023-02-22T05:50:59.634Z,19.75
2023-02-22T05:53:30.650Z,16.50
2023-02-22T05:56:01.867Z,16.50
2023-02-22T05:58:32.497Z,13.50
2023-02-22T06:01:03.492Z,15.50
2023-02-22T06:03:34.659Z,14.50
2023-02-22T06:06:05.031Z,18.25
2023-02-22T06:08:35.603Z,21.00
2023-02-22T06:11:06.256Z,18.00
2023-02-22T06:13:37.456Z,16.00
2023-02-22T06:16:08.231Z,22.75
2023-02-22T06:18:38.742Z,19.50
2023-02-22T06:21:09.439Z,21.75
2023-02-22T06:23:40.090Z,23.25
2023-02-22T06:26:10.395Z,21.00
2023-02-22T06:28:52.698Z,21.50
2023-02-22T06:31:24.811Z,22.00
2023-02-22T06:33:56.913Z,19.75
2023-02-22T06:36:27.915Z,18.50
2023-02-22T06:38:58.975Z,20.75
2023-02-22T06:41:29.206Z,16.50
2023-02-22T06:43:59.628Z,18.00
2023-02-22T06:46:30.210Z,21.25
2023-02-22T06:49:00.790Z,14.00
2023-02-22T06:51:34.084Z,18.00
2023-02-22T06:54:05.948Z,18.50
2023-02-22T06:56:37.476Z,16.00
2023-02-22T06:59:08.902Z,17.25
2023-02-22T07:01:43.956Z,17.00
2023-02-22T07:04:14.232Z,15.00
2023-02-22T07:06:50.519Z,15.25
2023-02-22T07:09:22.621Z,12.00
2023-02-22T07:11:53.547Z,10.50
2023-02-22T07:14:25.051Z,11.50
2023-02-22T07:16:56.937Z,14.00
2023-02-22T07:19:31.632Z,10.75
2023-02-22T07:22:03.761Z,11.25
2023-02-22T07:24:34.186Z,9.00
2023-02-22T07:27:10.821Z,7.25
2023-02-22T07:29:52.622Z,7.00
2023-02-22T07:32:28.818Z,13.25
2023-02-22T07:35:01.773Z,8.00
2023-02-22T07:37:32.460Z,10.00
2023-02-22T07:40:02.949Z,10.00
2023-02-22T07:42:55.706Z,9.50
2023-02-22T07:45:30.507Z,11.25
2023-02-22T07:48:08.256Z,6.50
2023-02-22T07:50:42.081Z,5.25
2023-02-22T07:53:31.042Z,9.75
2023-02-22T07:56:05.642Z,6.50
2023-02-22T07:58:39.250Z,11.25
2023-02-22T08:01:10.500Z,5.50
2023-02-22T08:03:41.512Z,12.00
2023-02-22T08:06:12.037Z,7.25
2023-02-22T08:08:45.851Z,10.00
2023-02-22T08:11:16.618Z,11.00
2023-02-22T08:13:57.714Z,9.50
2023-02-22T08:16:29.535Z,6.75
2023-02-22T08:19:01.619Z,9.00
2023-02-22T08:21:34.531Z,8.75
2023-02-22T08:24:08.265Z,4.75
2023-02-22T08:26:47.800Z,4.50
2023-02-22T08:29:31.333Z,9.50
2023-02-22T08:32:02.455Z,8.50
2023-02-22T08:34:36.611Z,11.25
2023-02-22T08:37:08.967Z,10.00
2023-02-22T08:39:39.056Z,12.50
2023-02-22T08:42:18.719Z,9.50
2023-02-22T08:44:51.916Z,12.75
2023-02-22T08:47:22.733Z,10.00
2023-02-22T08:49:53.754Z,14.25
2023-02-22T08:52:29.510Z,7.00
2023-02-22T08:55:07.416Z,10.00
2023-02-22T08:57:46.493Z,9.00
2023-02-22T09:00:15.011Z,14.75
2023-02-22T09:02:51.167Z,6.25
2023-02-22T09:05:24.619Z,6.00
2023-02-22T09:07:55.947Z,7.50
2023-02-22T09:10:29.676Z,9.75
2023-02-22T09:13:02.560Z,8.50
2023-02-22T09:15:54.822Z,9.25
2023-02-22T09:18:39.052Z,12.75
2023-02-22T09:21:00.846Z,5.25
2023-02-22T09:23:33.377Z,12.75
2023-02-22T09:26:03.827Z,8.25
2023-02-22T09:28:34.757Z,9.00
2023-02-22T09:31:12.260Z,8.25
2023-02-22T09:33:47.620Z,9.00
2023-02-22T09:36:19.799Z,6.00
2023-02-22T09:38:57.896Z,10.50
2023-02-22T09:41:36.269Z,9.50
2023-02-22T09:44:13.129Z,13.25
2023-02-22T09:46:45.733Z,10.25
2023-02-22T09:49:27.632Z,13.00
2023-02-22T09:52:13.163Z,13.00
2023-02-22T09:54:52.442Z,10.50
2023-02-22T09:57:25.788Z,17.75
2023-02-22T10:00:22.335Z,12.50
2023-02-22T10:03:16.368Z,13.25
2023-02-22T10:05:57.984Z,14.00
2023-02-22T10:08:32.944Z,12.75
2023-02-22T10:11:34.281Z,9.00
2023-02-22T10:14:10.332Z,9.00
2023-02-22T10:16:49.940Z,8.00
2023-02-22T10:19:52.296Z,13.00
2023-02-22T10:23:01.306Z,17.00
2023-02-22T10:25:42.537Z,18.50
2023-02-22T10:28:34.162Z,16.25
2023-02-22T10:31:08.891Z,18.50
2023-02-22T10:33:52.054Z,9.50
2023-02-22T10:36:26.579Z,20.50
2023-02-22T10:39:03.364Z,11.50
2023-02-22T10:41:37.175Z,17.75
2023-02-22T10:44:09.731Z,19.00
2023-02-22T10:46:42.247Z,12.25
2023-02-22T10:49:15.542Z,15.00
2023-02-22T10:52:01.803Z,14.25
2023-02-22T10:55:14.041Z,16.75
2023-02-22T10:57:38.358Z,13.25
2023-02-22T11:00:20.320Z,16.00
2023-02-22T11:03:04.093Z,16.25
2023-02-22T11:05:39.782Z,12.75
2023-02-22T11:11:26.118Z,17.00
2023-02-22T11:13:57.298Z,17.25
2023-02-22T11:16:39.397Z,17.25
2023-02-22T11:19:31.341Z,21.00
2023-02-22T11:22:07.456Z,20.75
2023-02-22T11:24:50.079Z,11.00
2023-02-22T11:27:39.399Z,17.00
2023-02-22T11:30:12.711Z,18.25
2023-02-22T11:33:07.831Z,18.00
2023-02-22T11:35:57.250Z,18.50
2023-02-22T11:38:32.954Z,20.25
2023-02-22T11:41:22.294Z,22.50
2023-02-22T11:44:15.094Z,15.75
2023-02-22T11:46:45.472Z,23.00
2023-02-22T11:49:17.628Z,24.00
2023-02-22T11:52:01.959Z,22.75
2023-02-22T11:54:54.870Z,27.50
2023-02-22T11:57:42.851Z,24.75
2023-02-22T12:00:25.469Z,25.25
2023-02-22T12:03:04.842Z,29.50
2023-02-22T12:05:56.855Z,20.00
2023-02-22T12:08:49.187Z,14.50
2023-02-22T12:11:48.274Z,20.25
2023-02-22T12:14:30.177Z,22.25
2023-02-22T12:17:32.635Z,23.50
2023-02-22T12:23:32.436Z,19.50
2023-02-22T12:26:11.873Z,44.25
2023-02-22T12:28:45.921Z,24.00
2023-02-22T12:31:30.866Z,15.50
2023-02-22T12:34:10.244Z,21.00
2023-02-22T12:36:46.242Z,21.25
2023-02-22T12:39:53.592Z,23.25
2023-02-22T12:42:26.382Z,26.00
2023-02-22T12:45:03.319Z,41.00
2023-02-22T12:47:38.730Z,20.25
2023-02-22T12:50:16.044Z,16.25
2023-02-22T12:52:49.392Z,13.25
2023-02-22T12:55:35.318Z,20.00
2023-02-22T12:58:22.163Z,18.50
2023-02-22T13:00:58.590Z,10.25
2023-02-22T13:03:34.877Z,20.00
2023-02-22T13:06:44.176Z,18.00
2023-02-22T13:09:44.911Z,27.25
2023-02-22T13:12:23.008Z,28.00
2023-02-22T13:15:19.163Z,27.75
2023-02-22T13:18:07.568Z,25.00
2023-02-22T13:21:16.385Z,25.25
2023-02-22T13:23:52.666Z,30.00
2023-02-22T13:26:26.057Z,25.25
2023-02-22T13:29:00.605Z,16.75
2023-02-22T13:31:49.587Z,30.50
2023-02-22T13:34:38.495Z,27.50
2023-02-22T13:38:04.768Z,28.50
2023-02-22T13:40:54.530Z,24.25
2023-02-22T13:43:55.115Z,27.75
2023-02-22T13:49:54.349Z,26.25
2023-02-22T13:52:29.749Z,29.75
2023-02-22T13:55:03.649Z,30.00
2023-02-22T13:57:44.111Z,34.75
2023-02-22T14:00:20.151Z,34.75
2023-02-22T14:03:14.726Z,29.25
2023-02-22T14:06:14.113Z,31.25
2023-02-22T14:08:50.639Z,30.50
2023-02-22T14:11:23.968Z,31.00
2023-02-22T14:13:58.072Z,33.75
2023-02-22T14:16:30.923Z,33.25
2023-02-22T14:19:16.948Z,31.00
2023-02-22T14:22:19.282Z,38.25
2023-02-22T14:25:03.909Z,36.50
2023-02-22T14:27:59.906Z,31.75
2023-02-22T14:30:29.810Z,35.25
2023-02-22T14:33:01.288Z,39.25
2023-02-22T14:35:58.893Z,31.50
2023-02-22T14:38:29.793Z,34.75
2023-02-22T14:41:03.410Z,36.25
2023-02-22T14:43:36.846Z,26.50
2023-02-22T14:46:12.428Z,33.25
2023-02-22T14:48:44.095Z,31.00
2023-02-22T14:51:30.029Z,25.50
2023-02-22T14:54:08.904Z,16.50
2023-02-22T14:56:48.278Z,17.00
2023-02-22T14:59:24.356Z,18.25
2023-02-22T15:02:14.143Z,14.00
2023-02-22T15:04:54.959Z,19.50
2023-02-22T15:07:32.653Z,4.75
2023-02-22T15:10:20.779Z,18.75
2023-02-22T15:13:06.374Z,15.75
2023-02-22T15:15:49.833Z,14.50
2023-02-22T15:18:21.464Z,17.75
2023-02-22T15:21:13.483Z,14.00
2023-02-22T15:24:14.129Z,19.00
2023-02-22T15:27:00.634Z,16.25
2023-02-22T15:29:44.710Z,19.00
2023-02-22T15:35:48.309Z,18.25
2023-02-22T15:38:24.993Z,16.75
2023-02-22T15:41:11.304Z,17.75
2023-02-22T15:43:39.315Z,18.50
2023-02-22T15:46:12.844Z,22.00
2023-02-22T15:48:49.979Z,18.00
2023-02-22T15:51:26.981Z,19.00
2023-02-22T15:54:00.365Z,18.50
2023-02-22T15:56:34.601Z,19.50
2023-02-22T15:59:11.702Z,17.50
2023-02-22T16:01:45.397Z,26.50
2023-02-22T16:04:21.595Z,31.00
2023-02-22T16:06:56.099Z,19.00
2023-02-22T16:09:28.528Z,18.00
2023-02-22T16:12:11.826Z,21.50
2023-02-22T16:14:43.145Z,14.75
2023-02-22T16:17:49.336Z,18.00
2023-02-22T16:20:15.999Z,17.25
2023-02-22T16:22:48.651Z,22.00
2023-02-22T16:25:27.166Z,20.50
2023-02-22T16:28:03.728Z,20.00
2023-02-22T16:30:42.903Z,15.25
2023-02-22T16:33:14.335Z,14.00
2023-02-22T16:35:47.416Z,16.00
2023-02-22T16:38:20.761Z,15.50
2023-02-22T16:40:57.051Z,12.75
2023-02-22T16:46:32.788Z,16.00
2023-02-22T16:49:06.692Z,17.00
2023-02-22T16:51:45.954Z,17.75
2023-02-22T16:54:23.462Z,12.50
2023-02-22T16:56:58.584Z,22.00
2023-02-22T16:59:35.864Z,10.75
2023-02-22T17:02:09.670Z,14.25
2023-02-22T17:04:42.783Z,14.75
2023-02-22T17:07:13.579Z,13.75
2023-02-22T17:09:45.688Z,14.25
2023-02-22T17:12:20.871Z,13.50
2023-02-22T17:14:55.458Z,18.00
2023-02-22T17:17:33.689Z,19.25
2023-02-22T17:20:11.465Z,17.25
2023-02-22T17:22:47.915Z,20.00
2023-02-22T17:25:26.488Z,19.75
2023-02-22T17:28:01.139Z,23.25
2023-02-22T17:30:38.606Z,22.00
2023-02-22T17:33:11.284Z,18.25
2023-02-22T17:35:46.596Z,14.25
2023-02-22T17:38:22.632Z,20.25
2023-02-22T17:40:57.548Z,19.75
2023-02-22T17:43:35.543Z,22.50
2023-02-22T17:46:25.264Z,16.00
2023-02-22T17:49:00.156Z,16.75
2023-02-22T17:51:31.015Z,20.00
2023-02-22T17:54:03.909Z,21.50
2023-02-22T17:56:34.552Z,20.00
2023-02-22T17:59:05.257Z,16.50
2023-02-22T18:01:44.058Z,16.50
2023-02-22T18:04:17.640Z,19.00
2023-02-22T18:06:53.932Z,21.00
2023-02-22T18:09:42.606Z,20.00
2023-02-22T18:12:29.874Z,22.00
2023-02-22T18:15:07.849Z,22.75
2023-02-22T18:17:39.192Z,25.50
2023-02-22T18:20:13.165Z,20.75
2023-02-22T18:22:44.498Z,23.50
2023-02-22T18:25:15.813Z,23.25
2023-02-22T18:27:53.781Z,28.25
2023-02-22T18:30:23.280Z,20.25
2023-02-22T18:32:53.858Z,21.00
2023-02-22T18:35:24.628Z,24.00
2023-02-22T18:37:55.304Z,21.25
2023-02-22T18:40:26.058Z,20.00
2023-02-22T18:42:56.674Z,21.50
2023-02-22T18:45:38.519Z,17.25
2023-02-22T18:48:16.474Z,28.00
2023-02-22T18:50:48.290Z,26.75
2023-02-22T18:53:24.270Z,29.00
2023-02-22T18:55:57.354Z,21.50
2023-02-22T18:58:28.168Z,25.75
2023-02-22T19:01:00.006Z,26.25
2023-02-22T19:03:31.437Z,22.25
2023-02-22T19:06:09.463Z,29.00
2023-02-22T19:08:43.887Z,33.00
2023-02-22T19:11:18.774Z,19.50
2023-02-22T19:13:52.441Z,30.75
2023-02-22T19:16:30.111Z,23.50
2023-02-22T19:19:03.816Z,26.00
2023-02-22T19:21:34.579Z,24.50
2023-02-22T19:24:07.186Z,26.75
2023-02-22T19:26:45.337Z,23.00
2023-02-22T19:29:19.246Z,28.75
2023-02-22T19:31:57.151Z,22.25
2023-02-22T19:34:36.829Z,18.50
2023-02-22T19:37:20.907Z,25.50
2023-02-22T19:39:52.934Z,26.25
2023-02-22T19:42:28.863Z,30.50
2023-02-22T19:45:24.845Z,28.25
2023-02-22T19:47:56.413Z,30.00
2023-02-22T19:50:30.239Z,26.50
2023-02-22T19:53:07.682Z,25.50
2023-02-22T19:55:43.976Z,31.25
2023-02-22T19:58:14.101Z,22.25
2023-02-22T20:00:47.005Z,30.25
2023-02-22T20:03:17.961Z,37.75
2023-02-22T20:05:56.541Z,29.00
2023-02-22T20:08:36.529Z,28.00
2023-02-22T20:11:10.869Z,30.50
2023-02-22T20:13:46.742Z,40.75
2023-02-22T20:16:17.801Z,39.50
2023-02-22T20:18:52.101Z,39.50
2023-02-22T20:21:31.447Z,31.75
2023-02-22T20:24:44.388Z,35.00
2023-02-22T20:33:32.701Z,32.50
2023-02-22T20:36:06.884Z,38.25
2023-02-22T20:39:28.613Z,30.50
2023-02-22T20:41:51.896Z,35.25
2023-02-22T20:44:29.772Z,37.50
2023-02-22T20:47:03.419Z,40.75
2023-02-22T20:52:26.829Z,34.00
2023-02-22T20:55:13.921Z,21.00
2023-02-22T20:58:02.232Z,27.50
2023-02-22T21:00:15.148Z,30.75
2023-02-22T21:03:24.261Z,32.25
2023-02-22T21:05:55.646Z,31.75
2023-02-22T21:08:55.330Z,31.00
2023-02-22T21:11:35.137Z,27.75
2023-02-22T21:14:08.427Z,32.50
2023-02-22T21:16:41.662Z,32.75
2023-02-22T21:19:21.586Z,35.25
2023-02-22T21:22:03.353Z,31.25
2023-02-22T21:24:43.345Z,25.00
2023-02-22T21:27:19.532Z,32.75
2023-02-22T21:29:56.180Z,29.25
2023-02-22T21:32:28.417Z,21.75
2023-02-22T21:35:03.039Z,27.50
2023-02-22T21:37:35.223Z,30.25
2023-02-22T21:40:12.346Z,24.00
2023-02-22T21:42:44.221Z,31.75
2023-02-22T21:45:20.508Z,29.00
2023-02-22T21:47:51.747Z,29.00
2023-02-22T21:50:30.058Z,15.25
2023-02-22T21:53:01.989Z,24.25
2023-02-22T21:55:34.724Z,22.25
2023-02-22T21:58:06.853Z,25.25
2023-02-22T22:00:38.180Z,26.00
2023-02-22T22:03:10.489Z,21.25
2023-02-22T22:05:41.891Z,28.75
2023-02-22T22:08:17.090Z,29.25
2023-02-22T22:10:55.476Z,22.75
2023-02-22T22:13:31.555Z,14.00
2023-02-22T22:16:10.516Z,27.00
2023-02-22T22:18:39.882Z,20.00
2023-02-22T22:21:20.548Z,24.00
2023-02-22T22:23:56.978Z,21.25
2023-02-22T22:26:28.212Z,27.00
2023-02-22T22:29:02.334Z,27.00
2023-02-22T22:31:33.945Z,18.00
2023-02-22T22:34:07.997Z,19.50
2023-02-22T22:36:46.925Z,20.50
2023-02-22T22:39:18.000Z,28.50
2023-02-22T22:41:50.810Z,24.00
2023-02-22T22:44:21.879Z,16.75
2023-02-22T22:46:59.989Z,24.75
2023-02-22T22:49:31.483Z,20.25
2023-02-22T22:52:03.596Z,18.25
2023-02-22T22:54:38.074Z,26.00
2023-02-22T23:00:00.730Z,17.00
2023-02-22T23:02:50.284Z,26.00
2023-02-22T23:05:13.768Z,18.50
2023-02-22T23:07:44.781Z,21.25
2023-02-22T23:10:22.939Z,21.50
2023-02-22T23:12:56.744Z,23.25
2023-02-22T23:15:29.203Z,27.00
2023-02-22T23:17:59.993Z,23.00
2023-02-22T23:20:36.831Z,27.00
2023-02-22T23:23:08.948Z,25.00
2023-02-22T23:25:41.688Z,27.50
2023-02-22T23:28:12.417Z,25.50
2023-02-22T23:30:44.083Z,24.75
2023-02-22T23:33:15.623Z,30.25
2023-02-22T23:35:50.255Z,29.25
2023-02-22T23:41:42.188Z,27.50
2023-02-22T23:44:13.256Z,19.00
2023-02-22T23:46:45.736Z,24.25
2023-02-22T23:49:17.674Z,21.00
2023-02-22T23:51:48.989Z,22.00
2023-02-22T23:54:21.373Z,27.50
2023-02-22T23:56:52.186Z,23.00
2023-02-22T23:59:23.615Z,22.00
